Terminal Aerodrome Forecast
Issued by NWS

Home | Current Version | Previous Version | Text Only | Print | Product List | Glossary On
Versions: 1 2 3 4 5 6 7 8 9 10 11 12 13 14 15 16 17 18 19 20 21 22 23 24 25 26 27 28 29
000
FTUS41 KBOX 040542
TAFACK
TAF
KACK 040542Z 0406/0506 19016KT 4SM -RA BR BKN004 OVC012
      WS020/20045KT
     FM041000 23016G24KT 6SM -RA BR OVC008
     FM041800 25012KT 5SM -RA BR OVC015
     FM042200 25010KT 6SM BR OVC015
     FM050100 26009KT 6SM -RA BR OVC015
     FM050300 28009KT 5SM -FZRA BR OVC050=

USA.gov is the U.S. government's official web portal to all federal, state and local government web resources and services.